Time;durP1;ratioP1;P1;durP2;ratioP2;P2;SDS_P1;SDS_P2;PMS_P1;PMS_P2;Temp;Humidity;BMP_temperature;BMP_pressure;BME280_temperature;BME280_humidity;BME280_pressure;Samples;Min_cycle;Max_cycle;Signal;HPM_P1;HPM_P2
2021/06/25 00:02:19;;;;;;;5.07;4.67;;;;;;;14.99;100.00;98162.53;5081789;28;20206;-70
2021/06/25 00:04:47;;;;;;;5.17;4.17;;;;;;;15.13;100.00;98159.97;5082493;28;20957;-68
2021/06/25 00:07:15;;;;;;;4.53;4.23;;;;;;;15.18;100.00;98169.09;5081044;28;20229;-69
2021/06/25 00:09:43;;;;;;;5.97;5.43;;;;;;;15.27;100.00;98169.78;5082234;28;20702;-70
2021/06/25 00:12:12;;;;;;;5.20;4.90;;;;;;;15.10;100.00;98163.84;5081532;28;20206;-69
2021/06/25 00:14:40;;;;;;;5.50;5.10;;;;;;;15.15;100.00;98163.28;5083757;28;20234;-69
2021/06/25 00:17:08;;;;;;;5.10;4.73;;;;;;;15.22;100.00;98164.19;5079578;28;20590;-70
2021/06/25 00:19:37;;;;;;;6.37;5.73;;;;;;;15.15;100.00;98157.94;5078473;28;20230;-69
2021/06/25 00:22:06;;;;;;;7.30;5.53;;;;;;;15.07;100.00;98163.41;5082402;28;20292;-70
2021/06/25 00:24:34;;;;;;;6.30;5.80;;;;;;;15.03;100.00;98158.47;5084300;28;20433;-71
2021/06/25 00:27:02;;;;;;;6.90;6.30;;;;;;;14.86;100.00;98154.34;5086644;28;20224;-70
2021/06/25 00:29:30;;;;;;;7.83;7.03;;;;;;;14.87;100.00;98148.00;5083912;28;20225;-70
2021/06/25 00:31:58;;;;;;;6.63;6.13;;;;;;;14.62;100.00;98145.66;5080993;28;20206;-71
2021/06/25 00:34:26;;;;;;;7.80;7.10;;;;;;;14.54;100.00;98153.72;5083253;28;20199;-71
2021/06/25 00:36:55;;;;;;;7.37;6.73;;;;;;;14.37;100.00;98155.75;5088264;28;20678;-72
2021/06/25 00:39:23;;;;;;;7.83;7.13;;;;;;;14.30;100.00;98148.50;5081664;28;20721;-72
2021/06/25 00:41:51;;;;;;;7.60;6.83;;;;;;;14.33;100.00;98149.97;5083737;28;20656;-70
2021/06/25 00:44:21;;;;;;;6.57;6.07;;;;;;;14.42;100.00;98145.38;5082111;28;20229;-69
2021/06/25 00:46:49;;;;;;;7.00;6.40;;;;;;;14.42;100.00;98142.72;5080299;28;20218;-70
2021/06/25 00:49:18;;;;;;;5.93;5.50;;;;;;;14.36;100.00;98138.94;5085165;28;20606;-71
2021/06/25 00:51:46;;;;;;;7.10;6.60;;;;;;;14.58;100.00;98134.50;5089021;28;20754;-69
2021/06/25 00:54:16;;;;;;;6.60;6.10;;;;;;;14.55;100.00;98134.03;5090244;28;20210;-71
2021/06/25 00:56:44;;;;;;;7.10;6.50;;;;;;;14.50;100.00;98137.28;5084342;28;20682;-71
2021/06/25 00:59:12;;;;;;;7.30;6.77;;;;;;;14.48;100.00;98132.13;5085874;28;20629;-70
2021/06/25 01:01:40;;;;;;;8.47;6.47;;;;;;;14.63;100.00;98133.97;5086319;28;20206;-71
2021/06/25 01:04:08;;;;;;;8.67;7.30;;;;;;;14.43;100.00;98137.19;5083469;28;20209;-71
2021/06/25 01:06:38;;;;;;;6.77;6.27;;;;;;;14.38;100.00;98128.09;5085536;28;20670;-70
2021/06/25 01:09:08;;;;;;;8.60;6.53;;;;;;;14.31;100.00;98134.16;5086404;28;20284;-70
2021/06/25 01:11:38;;;;;;;7.13;6.57;;;;;;;14.30;100.00;98129.84;5087312;28;20577;-70
2021/06/25 01:14:06;;;;;;;6.60;6.00;;;;;;;14.38;100.00;98123.59;5088667;28;20210;-71
2021/06/25 01:16:34;;;;;;;6.10;5.60;;;;;;;14.37;100.00;98119.28;5085330;28;20729;-70
2021/06/25 01:19:02;;;;;;;6.33;5.93;;;;;;;14.32;100.00;98125.16;5085164;28;20340;-72
2021/06/25 01:21:32;;;;;;;8.43;6.77;;;;;;;14.26;100.00;98117.09;5086331;28;20209;-70
2021/06/25 01:24:00;;;;;;;7.57;6.87;;;;;;;14.18;100.00;98112.66;5084535;28;20214;-70
2021/06/25 01:26:28;;;;;;;7.03;6.37;;;;;;;14.20;100.00;98121.31;5084922;28;20229;-73
2021/06/25 01:28:56;;;;;;;7.30;6.43;;;;;;;14.14;100.00;98117.53;5081820;28;20230;-71
2021/06/25 01:31:24;;;;;;;11.03;8.20;;;;;;;14.21;100.00;98127.47;5085088;28;20217;-71
2021/06/25 01:33:52;;;;;;;7.03;6.43;;;;;;;14.24;100.00;98129.78;5088333;28;20510;-72
2021/06/25 01:36:20;;;;;;;6.93;6.30;;;;;;;14.21;100.00;98120.28;5087990;28;20202;-71
2021/06/25 01:38:50;;;;;;;7.27;6.37;;;;;;;14.29;100.00;98116.72;5086142;28;20229;-70
2021/06/25 01:41:18;;;;;;;7.30;6.60;;;;;;;14.36;100.00;98112.28;5081630;28;20583;-70
2021/06/25 01:43:46;;;;;;;7.43;6.83;;;;;;;14.25;100.00;98107.44;5086160;28;20213;-71
2021/06/25 01:46:15;;;;;;;7.10;6.27;;;;;;;14.32;100.00;98111.81;5083858;28;20276;-71
2021/06/25 01:48:45;;;;;;;6.83;6.23;;;;;;;14.36;100.00;98114.13;5085855;28;20238;-70
2021/06/25 01:51:13;;;;;;;6.23;5.73;;;;;;;14.35;100.00;98110.63;5082929;28;20240;-70
2021/06/25 01:53:41;;;;;;;6.93;6.37;;;;;;;14.35;100.00;98104.47;5083777;28;20582;-71
2021/06/25 01:56:10;;;;;;;7.13;6.60;;;;;;;14.37;100.00;98110.44;5088618;28;20270;-72
2021/06/25 01:58:38;;;;;;;6.93;6.43;;;;;;;14.29;100.00;98108.72;5095322;28;20614;-71
2021/06/25 02:01:11;;;;;;;6.70;6.20;;;;;;;14.41;100.00;98107.22;5097183;28;20198;-71
2021/06/25 02:03:39;;;;;;;6.67;6.00;;;;;;;14.33;100.00;98107.34;5087539;28;20206;-71
2021/06/25 02:06:08;;;;;;;7.33;6.73;;;;;;;14.27;100.00;98105.41;5083994;28;20205;-70
2021/06/25 02:08:38;;;;;;;7.10;6.40;;;;;;;14.29;100.00;98098.06;5090862;28;20394;-72
2021/06/25 02:11:07;;;;;;;7.23;6.70;;;;;;;14.29;100.00;98092.72;5083203;28;20206;-69
2021/06/25 02:13:36;;;;;;;6.50;5.93;;;;;;;14.36;100.00;98096.28;5088141;28;20388;-70
2021/06/25 02:16:06;;;;;;;9.63;6.60;;;;;;;14.40;100.00;98092.25;5083267;28;20643;-70
2021/06/25 02:18:34;;;;;;;7.07;6.43;;;;;;;14.42;100.00;98087.53;5084441;28;20222;-69
2021/06/25 02:21:02;;;;;;;6.93;6.40;;;;;;;14.52;100.00;98097.94;5081634;28;20203;-72
2021/06/25 02:23:30;;;;;;;7.63;7.03;;;;;;;14.61;100.00;98099.47;5087224;28;20197;-69
2021/06/25 02:25:58;;;;;;;7.63;6.90;;;;;;;14.63;100.00;98096.63;5086087;28;20301;-70
2021/06/25 02:28:27;;;;;;;7.40;6.80;;;;;;;14.65;100.00;98102.59;5085253;28;20283;-71
2021/06/25 02:30:56;;;;;;;7.60;6.80;;;;;;;14.61;100.00;98098.66;5080743;28;20206;-71
2021/06/25 02:33:25;;;;;;;8.07;7.27;;;;;;;14.73;100.00;98104.34;5084585;28;20709;-70
2021/06/25 02:35:53;;;;;;;7.67;6.97;;;;;;;14.67;100.00;98105.06;5085256;28;20670;-72
2021/06/25 02:38:21;;;;;;;9.13;7.00;;;;;;;14.68;100.00;98102.22;5087083;28;21051;-69
2021/06/25 02:40:49;;;;;;;7.50;6.90;;;;;;;14.70;100.00;98100.22;5083831;28;20210;-69
2021/06/25 02:43:18;;;;;;;8.10;7.30;;;;;;;14.72;100.00;98102.69;5086114;28;20221;-71
2021/06/25 02:45:46;;;;;;;7.13;6.63;;;;;;;14.73;100.00;98097.16;5083579;28;20222;-69
2021/06/25 02:48:15;;;;;;;7.23;6.73;;;;;;;14.70;100.00;98096.69;5084041;28;20626;-70
2021/06/25 02:50:43;;;;;;;6.97;6.47;;;;;;;14.67;100.00;98095.22;5082482;28;20631;-71
2021/06/25 02:53:11;;;;;;;7.37;6.67;;;;;;;14.64;100.00;98097.44;5085442;28;20284;-69
2021/06/25 02:55:50;;;;;;;7.13;6.53;;;;;;;14.62;100.00;98090.44;5083319;28;20210;-69
2021/06/25 02:58:19;;;;;;;7.57;6.63;;;;;;;14.61;100.00;98096.00;5080443;28;20227;-69
2021/06/25 03:00:47;;;;;;;7.90;7.30;;;;;;;14.63;100.00;98091.28;5082453;28;20214;-72
2021/06/25 03:03:17;;;;;;;6.90;6.40;;;;;;;14.53;100.00;98093.41;5084178;28;20210;-69
2021/06/25 03:05:45;;;;;;;8.10;7.50;;;;;;;14.50;100.00;98088.44;5082046;28;20232;-71
2021/06/25 03:08:13;;;;;;;9.33;8.43;;;;;;;14.55;100.00;98096.72;5083447;28;20540;-70
2021/06/25 03:10:42;;;;;;;7.27;6.80;;;;;;;14.51;100.00;98090.09;5081278;28;20201;-71
2021/06/25 03:13:10;;;;;;;8.57;7.40;;;;;;;14.44;100.00;98080.19;5085314;28;20214;-69
2021/06/25 03:15:38;;;;;;;9.17;8.40;;;;;;;14.42;100.00;98084.06;5078530;28;20206;-70
2021/06/25 03:18:06;;;;;;;9.10;8.40;;;;;;;14.43;100.00;98077.72;5086339;28;20237;-69
2021/06/25 03:20:36;;;;;;;8.33;7.73;;;;;;;14.44;100.00;98082.84;5084341;28;20202;-69
2021/06/25 03:23:05;;;;;;;8.30;7.70;;;;;;;14.50;100.00;98083.97;5084162;28;20207;-69
2021/06/25 03:25:33;;;;;;;9.60;8.70;;;;;;;14.55;100.00;98084.22;5081927;28;20649;-71
2021/06/25 03:28:01;;;;;;;10.33;9.43;;;;;;;14.50;100.00;98083.97;5079330;28;20317;-69
2021/06/25 03:30:30;;;;;;;9.80;8.90;;;;;;;14.52;100.00;98089.09;5076911;28;20930;-70
2021/06/25 03:32:59;;;;;;;10.30;9.50;;;;;;;14.55;100.00;98078.88;5081005;28;20513;-70
2021/06/25 03:35:27;;;;;;;10.13;9.30;;;;;;;14.70;100.00;98091.34;5071740;28;20209;-70
2021/06/25 03:37:57;;;;;;;10.33;9.43;;;;;;;14.72;100.00;98084.84;5082886;28;20765;-69
2021/06/25 03:40:26;;;;;;;9.43;8.63;;;;;;;14.82;100.00;98086.38;5081977;28;20198;-69
2021/06/25 03:42:54;;;;;;;10.63;9.73;;;;;;;14.81;100.00;98082.91;5083266;28;20292;-69
2021/06/25 03:45:23;;;;;;;11.30;10.40;;;;;;;14.87;100.00;98089.31;5081755;28;20221;-70
2021/06/25 03:47:51;;;;;;;12.33;11.23;;;;;;;14.89;100.00;98093.44;5080528;28;20227;-70
2021/06/25 03:50:19;;;;;;;12.43;11.43;;;;;;;14.87;100.00;98089.31;5081939;28;20226;-70
2021/06/25 03:52:47;;;;;;;13.13;12.03;;;;;;;14.89;100.00;98095.28;5084207;28;20210;-70
2021/06/25 03:55:17;;;;;;;12.87;11.60;;;;;;;14.83;100.00;98096.88;5082570;28;20594;-70
2021/06/25 03:57:45;;;;;;;11.87;10.97;;;;;;;14.87;100.00;98097.31;5080443;28;20242;-73
2021/06/25 04:00:16;;;;;;;13.17;11.83;;;;;;;14.75;100.00;98094.28;5076320;28;20202;-73
2021/06/25 04:02:45;;;;;;;12.37;11.27;;;;;;;14.73;100.00;98097.16;5082224;28;20217;-71
2021/06/25 04:05:14;;;;;;;12.63;11.43;;;;;;;14.72;100.00;98098.19;5078336;28;20206;-71
2021/06/25 04:07:42;;;;;;;11.97;10.97;;;;;;;14.70;100.00;98100.22;5082111;28;20381;-69
2021/06/25 04:10:12;;;;;;;14.80;13.40;;;;;;;14.75;100.00;98105.81;5081900;28;20218;-71
2021/06/25 04:12:42;;;;;;;12.03;11.03;;;;;;;14.75;100.00;98108.47;5081607;28;20209;-71
2021/06/25 04:15:11;;;;;;;13.93;12.63;;;;;;;14.77;100.00;98113.59;5080784;28;20263;-71
2021/06/25 04:17:39;;;;;;;12.23;11.17;;;;;;;14.72;100.00;98113.34;5089032;28;20615;-72
2021/06/25 04:20:08;;;;;;;12.33;11.30;;;;;;;14.78;100.00;98114.44;5078169;28;20194;-70
2021/06/25 04:22:36;;;;;;;12.37;11.20;;;;;;;14.73;100.00;98121.19;5084541;28;20658;-72
2021/06/25 04:25:05;;;;;;;11.77;10.87;;;;;;;14.64;100.00;98116.09;5090382;28;20201;-70
2021/06/25 04:27:33;;;;;;;11.03;10.13;;;;;;;14.81;100.00;98117.59;5086633;28;20216;-72
2021/06/25 04:30:04;;;;;;;11.20;10.20;;;;;;;14.81;100.00;98117.59;5085190;28;20597;-73
2021/06/25 04:32:32;;;;;;;9.67;8.97;;;;;;;14.76;100.00;98114.63;5083840;28;20199;-69
2021/06/25 04:35:01;;;;;;;10.57;9.57;;;;;;;14.87;100.00;98118.66;5087374;28;20202;-71
2021/06/25 04:37:29;;;;;;;10.53;9.73;;;;;;;14.92;100.00;98123.44;5084473;28;20742;-69
2021/06/25 04:39:57;;;;;;;10.30;9.50;;;;;;;14.84;100.00;98129.69;5081485;28;20653;-71
2021/06/25 04:42:25;;;;;;;10.07;9.17;;;;;;;14.84;100.00;98119.03;5084776;28;20211;-71
2021/06/25 04:44:53;;;;;;;8.13;7.53;;;;;;;14.83;100.00;98128.03;5086397;28;20301;-70
2021/06/25 04:47:23;;;;;;;6.77;6.23;;;;;;;14.87;100.00;98129.31;5089245;28;20771;-70
2021/06/25 04:49:51;;;;;;;6.37;5.90;;;;;;;14.83;100.00;98126.22;5080398;28;20234;-70
2021/06/25 04:52:19;;;;;;;6.43;6.03;;;;;;;14.85;100.00;98129.53;5085253;28;20213;-69
2021/06/25 04:54:47;;;;;;;6.13;5.73;;;;;;;14.76;100.00;98126.13;5081137;28;20461;-72
2021/06/25 04:57:15;;;;;;;5.50;5.20;;;;;;;14.89;100.00;98122.78;5082562;28;20202;-72
2021/06/25 04:59:43;;;;;;;5.20;4.70;;;;;;;14.88;100.00;98120.31;5084204;28;20224;-74
2021/06/25 05:02:12;;;;;;;5.23;4.83;;;;;;;14.88;100.00;98121.13;5082470;28;20207;-68
2021/06/25 05:04:41;;;;;;;6.23;5.60;;;;;;;15.25;100.00;98129.09;5080227;28;20217;-70
2021/06/25 05:07:09;;;;;;;4.70;4.40;;;;;;;15.28;100.00;98123.38;5079885;28;20651;-72
2021/06/25 05:09:37;;;;;;;4.20;3.93;;;;;;;15.29;100.00;98125.03;5078918;28;20222;-70
2021/06/25 05:12:06;;;;;;;4.30;4.03;;;;;;;15.22;100.00;98123.31;5078706;28;20206;-69
2021/06/25 05:14:34;;;;;;;4.53;4.13;;;;;;;15.27;100.00;98118.25;5080375;28;20202;-69
2021/06/25 05:17:02;;;;;;;4.30;4.10;;;;;;;15.34;100.00;98119.97;5082982;28;20194;-71
2021/06/25 05:19:31;;;;;;;4.33;4.10;;;;;;;15.44;100.00;98121.47;5080747;28;20218;-69
2021/06/25 05:22:00;;;;;;;5.00;4.60;;;;;;;15.36;100.00;98116.28;5080264;28;20214;-70
2021/06/25 05:24:28;;;;;;;4.97;4.67;;;;;;;15.52;100.00;98120.50;5087487;28;20244;-72
2021/06/25 05:26:56;;;;;;;4.30;4.00;;;;;;;15.54;100.00;98119.28;5078666;28;20209;-72
2021/06/25 05:29:24;;;;;;;4.67;4.27;;;;;;;15.51;100.00;98117.00;5079296;28;20234;-68
2021/06/25 05:31:52;;;;;;;4.90;4.50;;;;;;;15.52;100.00;98117.81;5083312;28;20210;-70
2021/06/25 05:34:20;;;;;;;4.17;3.87;;;;;;;15.51;100.00;98124.19;5083706;28;20240;-68
2021/06/25 05:36:48;;;;;;;5.20;4.80;;;;;;;15.46;100.00;98125.59;5087651;28;20207;-71
2021/06/25 05:39:18;;;;;;;4.90;4.60;;;;;;;15.58;100.00;98133.09;5086155;28;20222;-70
2021/06/25 05:41:46;;;;;;;4.80;4.50;;;;;;;15.57;100.00;98124.25;5084996;28;20206;-71
2021/06/25 05:44:14;;;;;;;5.10;4.67;;;;;;;15.69;100.00;98126.38;5081698;28;20701;-69
2021/06/25 05:46:42;;;;;;;5.20;4.80;;;;;;;15.74;100.00;98132.81;5084645;28;20214;-71
2021/06/25 05:49:10;;;;;;;4.63;4.30;;;;;;;15.88;100.00;98138.25;5079688;28;20226;-71
2021/06/25 05:51:38;;;;;;;5.20;4.80;;;;;;;15.90;100.00;98136.22;5082155;28;20222;-72
2021/06/25 05:54:06;;;;;;;5.17;4.77;;;;;;;15.94;100.00;98129.50;5081516;28;20216;-70
2021/06/25 05:56:35;;;;;;;5.30;4.80;;;;;;;16.04;100.00;98137.13;5082171;28;20205;-71
2021/06/25 05:59:04;;;;;;;5.60;5.17;;;;;;;16.03;100.00;98140.84;5082548;28;20230;-70
2021/06/25 06:01:32;;;;;;;5.13;4.83;;;;;;;16.16;100.00;98145.44;5083996;28;20199;-73
2021/06/25 06:04:00;;;;;;;4.80;4.50;;;;;;;16.17;100.00;98152.44;5079938;28;20698;-71
2021/06/25 06:06:28;;;;;;;5.40;4.97;;;;;;;16.14;100.00;98145.66;5087933;28;20202;-70
2021/06/25 06:08:56;;;;;;;5.00;4.70;;;;;;;16.18;100.00;98148.75;5075896;28;20309;-71
2021/06/25 06:11:24;;;;;;;5.77;5.27;;;;;;;16.08;100.00;98140.25;5087054;28;20763;-69
2021/06/25 06:13:53;;;;;;;5.47;5.07;;;;;;;16.13;100.00;98148.50;5085271;28;20734;-70
2021/06/25 06:16:22;;;;;;;5.20;4.90;;;;;;;16.22;100.00;98141.16;5085154;28;20202;-71
2021/06/25 06:18:50;;;;;;;4.47;4.07;;;;;;;16.42;100.00;98150.13;5082614;28;21653;-70
2021/06/25 06:21:20;;;;;;;5.00;4.60;;;;;;;16.33;100.00;98144.13;5085864;28;20570;-70
2021/06/25 06:32:17;;;;;;;5.33;4.93;;;;;;;16.61;100.00;98145.88;5074550;28;20729;-70
2021/06/25 06:34:47;;;;;;;5.50;5.07;;;;;;;16.54;100.00;98145.03;5082255;28;20905;-70
2021/06/25 06:37:20;;;;;;;5.47;5.13;;;;;;;16.79;98.60;98142.66;5085230;28;20203;-69
2021/06/25 06:39:48;;;;;;;6.00;5.47;;;;;;;16.79;100.00;98150.69;5078392;28;20237;-71
2021/06/25 06:42:16;;;;;;;5.37;4.97;;;;;;;17.00;100.00;98150.78;5081158;28;20206;-71
2021/06/25 06:44:45;;;;;;;5.40;4.97;;;;;;;17.22;97.97;98159.47;5074054;28;20267;-70
2021/06/25 06:47:13;;;;;;;5.50;5.00;;;;;;;17.36;93.84;98154.97;5076391;28;20210;-71
2021/06/25 06:49:41;;;;;;;6.60;6.10;;;;;;;17.06;95.14;98158.84;5075998;28;20229;-72
2021/06/25 06:52:09;;;;;;;6.23;5.70;;;;;;;17.18;97.36;98163.59;5076831;28;20222;-73
2021/06/25 06:54:37;;;;;;;5.97;5.57;;;;;;;17.14;94.86;98154.31;5078788;28;20202;-70
2021/06/25 06:57:06;;;;;;;6.77;6.27;;;;;;;16.95;94.51;98151.38;5081268;28;20198;-69
2021/06/25 06:59:34;;;;;;;6.30;5.70;;;;;;;16.91;97.24;98158.16;5082896;28;20221;-69
2021/06/25 07:02:03;;;;;;;7.07;6.47;;;;;;;16.82;97.43;98154.81;5082916;28;20202;-71
2021/06/25 07:04:40;;;;;;;7.40;6.70;;;;;;;16.63;97.74;98154.53;5080512;28;20198;-71
2021/06/25 07:07:08;;;;;;;6.90;6.30;;;;;;;16.77;98.83;98158.09;5081792;28;20198;-70
2021/06/25 07:09:36;;;;;;;6.90;6.30;;;;;;;16.67;97.32;98157.66;5083311;28;20716;-68
2021/06/25 07:12:06;;;;;;;6.40;5.90;;;;;;;16.89;97.18;98160.22;5078012;28;20230;-70
2021/06/25 07:14:34;;;;;;;6.30;5.53;;;;;;;16.84;95.32;98159.97;5078628;28;20844;-68
2021/06/25 07:17:03;;;;;;;6.23;5.73;;;;;;;16.66;97.09;98166.69;5072273;28;22873;-68
2021/06/25 07:19:31;;;;;;;7.10;5.97;;;;;;;16.73;97.47;98169.41;5075885;28;20222;-70
2021/06/25 07:22:00;;;;;;;6.20;5.77;;;;;;;16.70;98.46;98169.81;5081379;28;20697;-68
2021/06/25 07:24:27;;;;;;;5.97;5.47;;;;;;;16.72;99.05;98181.94;5081410;28;20727;-69
2021/06/25 07:26:56;;;;;;;6.30;5.90;;;;;;;16.89;96.09;98177.06;5077635;28;20198;-69
2021/06/25 07:29:23;;;;;;;6.30;5.87;;;;;;;17.10;94.36;98169.13;5082040;28;20230;-70
2021/06/25 07:31:52;;;;;;;6.40;5.90;;;;;;;17.16;93.21;98177.19;5084491;28;20233;-67
2021/06/25 07:34:21;;;;;;;6.80;6.40;;;;;;;17.26;93.23;98176.81;5082610;28;20337;-72
2021/06/25 07:36:49;;;;;;;5.77;5.27;;;;;;;17.46;91.32;98176.84;5072411;28;20221;-68
2021/06/25 07:39:17;;;;;;;5.30;5.00;;;;;;;17.60;91.06;98171.50;5081952;28;20693;-69
2021/06/25 07:41:45;;;;;;;5.70;5.30;;;;;;;17.81;90.48;98169.66;5082499;28;20688;-69
2021/06/25 07:44:13;;;;;;;5.47;5.07;;;;;;;17.85;90.27;98174.38;5082087;28;20206;-71
2021/06/25 07:46:41;;;;;;;4.77;4.47;;;;;;;17.86;91.88;98169.88;5084482;28;20206;-71
2021/06/25 07:49:09;;;;;;;4.37;4.17;;;;;;;17.79;87.67;98167.97;5082766;28;20283;-70
2021/06/25 07:51:39;;;;;;;5.00;4.10;;;;;;;17.56;89.88;98170.25;5080273;28;20328;-71
2021/06/25 07:54:07;;;;;;;4.60;4.40;;;;;;;17.60;89.75;98169.63;5081420;28;20213;-73
2021/06/25 07:56:35;;;;;;;4.23;4.03;;;;;;;17.47;90.75;98158.91;5082224;28;20217;-71
2021/06/25 07:59:03;;;;;;;3.67;3.47;;;;;;;17.56;89.79;98171.06;5082286;28;20334;-69
2021/06/25 08:01:31;;;;;;;4.10;3.90;;;;;;;17.26;91.92;98166.09;5081023;28;20666;-70
2021/06/25 08:03:59;;;;;;;4.00;3.70;;;;;;;17.42;91.38;98162.19;5079573;28;20203;-71
2021/06/25 08:06:29;;;;;;;3.20;3.10;;;;;;;17.36;91.34;98161.16;5081156;28;20202;-73
2021/06/25 08:09:02;;;;;;;3.43;3.13;;;;;;;17.66;89.42;98157.28;5082382;28;20222;-71
2021/06/25 08:11:30;;;;;;;4.00;3.53;;;;;;;17.35;90.70;98158.69;5082450;28;20226;-71
2021/06/25 08:13:58;;;;;;;3.50;3.30;;;;;;;17.62;91.13;98154.19;5082585;28;20206;-72
2021/06/25 08:16:26;;;;;;;7.13;4.37;;;;;;;17.46;91.87;98160.78;5081115;28;20427;-70
2021/06/25 08:18:57;;;;;;;3.53;3.30;;;;;;;17.65;90.39;98158.31;5084097;28;20242;-72
2021/06/25 08:21:26;;;;;;;4.53;4.23;;;;;;;17.64;88.35;98156.66;5073048;28;20552;-71
2021/06/25 08:23:54;;;;;;;4.07;3.73;;;;;;;17.89;88.81;98153.38;5078734;28;20214;-71
2021/06/25 08:26:24;;;;;;;4.60;4.27;;;;;;;18.14;86.16;98145.50;5068727;28;20206;-73
2021/06/25 08:28:52;;;;;;;4.20;3.90;;;;;;;18.36;85.01;98140.72;5074348;28;20230;-72
2021/06/25 08:31:20;;;;;;;3.87;3.57;;;;;;;18.56;85.87;98142.53;5079378;28;20650;-71
2021/06/25 08:33:48;;;;;;;4.80;4.50;;;;;;;19.15;79.89;98139.78;5081737;28;20292;-71
2021/06/25 08:36:16;;;;;;;3.90;3.70;;;;;;;19.34;79.89;98148.75;5077823;28;20207;-71
2021/06/25 08:38:44;;;;;;;4.73;4.43;;;;;;;19.14;80.69;98150.75;5079276;28;20645;-73
2021/06/25 08:41:13;;;;;;;5.23;4.83;;;;;;;19.25;78.66;98150.06;5080904;28;20199;-71
2021/06/25 08:43:42;;;;;;;3.97;3.77;;;;;;;19.04;79.78;98149.31;5080314;28;20198;-72
2021/06/25 08:46:12;;;;;;;4.07;3.77;;;;;;;18.66;82.27;98152.78;5079240;28;20563;-72
2021/06/25 08:48:40;;;;;;;3.70;3.50;;;;;;;18.08;84.39;98149.84;5079497;28;20231;-73
2021/06/25 08:51:09;;;;;;;3.70;3.50;;;;;;;17.92;86.16;98153.75;5079556;28;20198;-71
2021/06/25 08:53:37;;;;;;;2.93;2.83;;;;;;;17.81;88.52;98162.44;5079606;28;20213;-72
2021/06/25 08:56:05;;;;;;;3.30;3.20;;;;;;;17.73;88.88;98152.72;5078124;28;20279;-73
2021/06/25 08:58:33;;;;;;;4.47;3.00;;;;;;;17.64;92.44;98152.13;5079831;28;20230;-72
2021/06/25 09:01:03;;;;;;;3.73;3.47;;;;;;;17.45;98.42;98152.94;5077910;28;20643;-74
2021/06/25 09:03:33;;;;;;;3.00;2.67;;;;;;;17.19;100.00;98160.72;5079010;28;20206;-72
2021/06/25 09:06:09;;;;;;;2.33;2.13;;;;;;;16.69;99.12;98158.28;5075643;28;20194;-68
2021/06/25 09:08:37;;;;;;;2.40;2.30;;;;;;;16.54;99.97;98153.06;5081319;28;20252;-70
2021/06/25 09:11:18;;;;;;;3.10;2.90;;;;;;;16.66;100.00;98161.34;5084192;28;20469;-71
2021/06/25 09:13:46;;;;;;;2.87;2.77;;;;;;;16.85;100.00;98157.09;5101718;28;20217;-74
2021/06/25 09:16:24;;;;;;;3.23;2.90;;;;;;;17.16;100.00;98154.94;5106239;28;20212;-76
2021/06/25 09:19:04;;;;;;;2.67;2.57;;;;;;;17.28;93.92;98158.69;5097072;28;20210;-69
2021/06/25 09:21:34;;;;;;;2.33;2.23;;;;;;;17.85;87.90;98157.50;5086847;28;20197;-70
2021/06/25 09:24:23;;;;;;;2.30;2.20;;;;;;;18.27;87.73;98162.59;5085559;28;20209;-73
2021/06/25 09:26:52;;;;;;;2.90;2.67;;;;;;;18.51;86.37;98156.56;5082262;28;20212;-71
2021/06/25 09:29:23;;;;;;;2.60;2.50;;;;;;;18.50;81.95;98160.28;5080798;28;20218;-74
2021/06/25 09:31:58;;;;;;;2.90;2.70;;;;;;;18.54;79.92;98157.97;5078740;28;20219;-71
2021/06/25 09:34:37;;;;;;;2.90;2.70;;;;;;;18.85;80.27;98158.28;5083781;28;20267;-73
2021/06/25 09:37:07;;;;;;;2.73;2.53;;;;;;;18.79;76.77;98162.66;5082953;28;20229;-71
2021/06/25 09:39:35;;;;;;;2.70;2.60;;;;;;;18.65;79.08;98161.88;5077322;28;20242;-74
2021/06/25 09:42:04;;;;;;;4.40;2.93;;;;;;;19.04;76.93;98159.25;5084334;28;20221;-70
2021/06/25 09:44:32;;;;;;;2.60;2.50;;;;;;;18.87;76.54;98158.91;5082062;28;20349;-71
2021/06/25 09:47:01;;;;;;;3.53;2.67;;;;;;;18.85;76.26;98158.28;5086689;28;20218;-71
2021/06/25 09:49:31;;;;;;;3.37;3.17;;;;;;;18.48;76.96;98153.47;5081377;28;20218;-70
2021/06/25 09:52:01;;;;;;;2.70;2.60;;;;;;;18.56;77.27;98149.72;5081600;28;20222;-73
2021/06/25 09:54:30;;;;;;;2.87;2.67;;;;;;;18.82;76.16;98161.41;5084282;28;20198;-71
2021/06/25 09:57:05;;;;;;;3.30;3.10;;;;;;;18.47;77.01;98151.81;5083954;28;20212;-70
2021/06/25 09:59:56;;;;;;;2.93;2.83;;;;;;;18.14;78.52;98150.88;5083013;28;20229;-72
2021/06/25 10:02:30;;;;;;;3.60;3.40;;;;;;;18.27;78.38;98147.34;5083173;28;20202;-71
2021/06/25 10:05:02;;;;;;;3.63;3.37;;;;;;;18.32;76.62;98152.06;5081293;28;20218;-73
2021/06/25 10:07:31;;;;;;;3.30;3.10;;;;;;;18.31;76.84;98142.38;5084491;28;20801;-73
2021/06/25 10:10:02;;;;;;;3.50;3.30;;;;;;;18.51;77.68;98139.63;5082492;28;20717;-70
2021/06/25 10:12:30;;;;;;;4.10;3.80;;;;;;;18.82;74.80;98139.94;5080858;28;20231;-70
2021/06/25 10:14:58;;;;;;;3.30;3.13;;;;;;;19.20;74.38;98131.06;5079656;28;20202;-71
2021/06/25 10:17:28;;;;;;;3.57;3.27;;;;;;;19.80;73.16;98124.41;5088283;28;20221;-71
2021/06/25 10:20:05;;;;;;;3.47;3.27;;;;;;;20.50;70.26;98123.28;5083558;28;20213;-73
2021/06/25 10:22:33;;;;;;;3.90;3.60;;;;;;;20.74;68.97;98120.72;5079916;28;20213;-70
2021/06/25 10:25:03;;;;;;;3.40;3.20;;;;;;;21.38;66.24;98116.75;5075338;28;20753;-72
2021/06/25 10:27:31;;;;;;;3.73;3.43;;;;;;;21.02;66.51;98113.13;5084959;28;20205;-72
2021/06/25 10:30:00;;;;;;;3.87;3.67;;;;;;;20.30;67.50;98136.16;5083411;28;20206;-70
2021/06/25 10:32:29;;;;;;;3.90;3.60;;;;;;;20.05;69.74;98126.28;5075783;28;20233;-71
2021/06/25 10:34:58;;;;;;;4.10;3.90;;;;;;;19.77;71.32;98124.84;5074426;28;20202;-72
2021/06/25 10:37:29;;;;;;;4.87;4.00;;;;;;;20.13;70.99;98125.97;5081777;28;20202;-73
2021/06/25 10:39:57;;;;;;;3.30;3.20;;;;;;;20.20;70.17;98124.03;5080861;28;20923;-71
2021/06/25 10:42:40;;;;;;;3.70;3.50;;;;;;;20.48;69.10;98124.56;5083342;28;20442;-70
2021/06/25 10:45:08;;;;;;;3.70;3.50;;;;;;;20.75;68.59;98117.00;5082528;28;20214;-73
2021/06/25 10:47:52;;;;;;;3.63;3.43;;;;;;;20.60;68.90;98120.06;5085241;28;20206;-71
2021/06/25 10:50:25;;;;;;;3.90;3.60;;;;;;;21.00;66.66;98117.94;5081541;28;20590;-70
2021/06/25 10:53:16;;;;;;;3.80;3.60;;;;;;;20.87;67.25;98121.63;5083699;28;20233;-72
2021/06/25 10:56:01;;;;;;;4.37;3.97;;;;;;;21.35;64.03;98117.22;5082539;28;20697;-71
2021/06/25 10:58:29;;;;;;;3.60;3.30;;;;;;;21.77;63.29;98117.19;5083761;28;20782;-72
2021/06/25 11:01:00;;;;;;;3.50;3.30;;;;;;;21.31;61.08;98113.34;5079580;28;20630;-72
2021/06/25 11:03:42;;;;;;;3.40;3.20;;;;;;;20.50;65.46;98112.53;5081851;28;20210;-73
2021/06/25 11:06:55;;;;;;;3.80;3.53;;;;;;;20.13;67.85;98127.88;5081465;28;20198;-71
2021/06/25 11:09:24;;;;;;;3.50;3.30;;;;;;;20.22;68.84;98129.19;5083560;28;20749;-71
2021/06/25 11:12:29;;;;;;;4.47;4.17;;;;;;;20.10;69.56;98129.13;5082982;28;20210;-72
2021/06/25 11:15:29;;;;;;;4.23;4.00;;;;;;;20.03;70.84;98137.25;5081186;28;20812;-73
2021/06/25 11:17:57;;;;;;;4.47;4.17;;;;;;;19.88;71.25;98139.44;5081153;28;20218;-71
2021/06/25 11:20:28;;;;;;;4.37;4.10;;;;;;;19.87;70.66;98124.34;5083589;28;20646;-68
2021/06/25 11:23:00;;;;;;;4.10;3.90;;;;;;;19.97;70.90;98124.69;5085448;28;20202;-73
2021/06/25 11:25:40;;;;;;;3.80;3.60;;;;;;;20.06;71.71;98133.28;5081962;28;20206;-71
2021/06/25 11:28:19;;;;;;;4.67;4.37;;;;;;;20.44;70.32;98126.88;5082119;28;20222;-68
2021/06/25 11:31:08;;;;;;;4.43;4.10;;;;;;;20.89;65.65;98130.28;5082811;28;20217;-71
2021/06/25 11:33:39;;;;;;;3.77;3.37;;;;;;;21.76;60.72;98123.63;5083335;28;20218;-72
2021/06/25 11:36:38;;;;;;;3.43;3.23;;;;;;;22.27;60.41;98120.44;5084692;28;20300;-74
2021/06/25 11:39:15;;;;;;;3.77;3.47;;;;;;;22.43;60.37;98121.56;5058881;28;20226;-70
2021/06/25 11:41:50;;;;;;;3.70;3.50;;;;;;;21.32;63.11;98123.88;5083012;28;20205;-71
2021/06/25 11:44:21;;;;;;;3.50;3.30;;;;;;;21.23;64.54;98125.25;5084436;28;20194;-72
2021/06/25 11:47:01;;;;;;;3.63;3.43;;;;;;;21.38;65.15;98130.22;5082070;28;20427;-70
2021/06/25 11:49:36;;;;;;;3.90;3.70;;;;;;;21.24;65.38;98127.75;5079455;28;20222;-69